RJNY(METAR)
05/26 20:00
METAR RJNY 261100Z 25007KT 9999 FEW020 BKN/// 20/16 Q1010 RMK 1CU020
A2983=
戻る
トップページへ戻る
IMOC Co,.Ltd.